Buoy 16555

sailwx.info

Track history (hours):
 
Tides and Currents Weather Stations Pressure Air Temp Water Temp Dewpoint Dewpoint Depression Visibility Wind Speed Wind Dir Waves Ship Positions

Drifting buoy 16555

Last reported at 2017-Nov-25 03:00 UTC. Time now 2017-Nov-25 06:02 UTC.
Position S 28°37' E 099°26'.

Barometer 1021.9 mb
Water temperature 19.9 ° C

Date/timePositionNaut miles runAvg speedWind from/ knotsBaromVisibWave heightAir tempDewpointWater temp
2017-Nov-25 03:00S 28°37' E 099°26'3 3.0 1021.9 19.9
2017-Nov-25 02:00S 28°34' E 099°26'3 3.0 1021.9 19.9
2017-Nov-25 01:00S 28°37' E 099°26'0 0.0 1021.8 19.8
2017-Nov-25 00:00S 28°37' E 099°26'7 6.6 1021.2 19.8
2017-Nov-24 23:00S 28°43' E 099°27'0 0.0 1020.7 19.8
2017-Nov-24 22:00S 28°43' E 099°27'0 0.0 1020.4 19.8
2017-Nov-24 21:00S 28°43' E 099°27'0 0.0 1020.3 19.8
2017-Nov-24 16:00S 28°43' E 099°27'2 2.5 1020.7 19.9
2017-Nov-24 15:00S 28°46' E 099°28'2 0.9 1020.8 19.9
2017-Nov-24 13:00S 28°47' E 099°28'1 0.8 1020.0 19.9
2017-Nov-24 12:00S 28°48' E 099°27'1 0.6 1019.7 19.9
2017-Nov-24 11:00S 28°49' E 099°27'1 0.6 1019.4 19.9
2017-Nov-24 10:00S 28°49' E 099°27'1 1.3 1019.3 20.0
2017-Nov-24 09:00S 28°50' E 099°26'4 4.2 1019.5 19.9
2017-Nov-24 08:00S 28°55' E 099°26'0 0.0 1019.9 19.9
2017-Nov-24 04:00S 28°55' E 099°26'0 0.0 1021.0 19.8
2017-Nov-24 03:00S 28°55' E 099°26'3 0.9 1020.7 19.8
2017-Nov-24 00:00S 28°57' E 099°25'1 0.6 1019.9 19.8
2017-Nov-23 23:00S 28°58' E 099°25'1 0.8 1019.3 19.8
2017-Nov-23 22:00S 28°58' E 099°24'4 1.2 1019.1 19.9
2017-Nov-23 19:00S 29°02' E 099°24'0 0.0 1018.4 19.9
2017-Nov-23 15:00S 29°02' E 099°24'1 0.4 1019.8 19.9
2017-Nov-23 13:00S 29°02' E 099°23'0 0.0 1019.7 19.9
2017-Nov-23 12:00S 29°02' E 099°23'1 0.8 1019.3 20.0
2017-Nov-23 11:00S 29°03' E 099°24'2 1.6 1019.0 20.0
2017-Nov-23 10:00S 29°04' E 099°23'0 0.0 1018.6 20.0
2017-Nov-23 09:00S 29°04' E 099°23'4 0.4 1018.9 20.0
2017-Nov-23 01:00S 29°07' E 099°20'1 0.8 1020.9 19.8
2017-Nov-23 00:00S 29°07' E 099°20'1 0.5 1020.6 19.8
2017-Nov-22 23:00S 29°07' E 099°20'0 0.0 1020.2 19.8
2017-Nov-22 22:00S 29°07' E 099°20'1 0.4 1019.6 19.9
2017-Nov-22 19:00S 29°08' E 099°19'1 0.2 1019.5 19.9
2017-Nov-22 15:00S 29°08' E 099°19'1 0.3 1020.6 20.0
2017-Nov-22 13:00S 29°08' E 099°18'0 0.0 1020.4 20.1
2017-Nov-22 12:00S 29°08' E 099°18'2 0.7 1019.9 20.1
2017-Nov-22 09:00S 29°10' E 099°16'2 0.4 1019.7 20.2
2017-Nov-22 03:00S 29°11' E 099°14'1 0.8 1020.9 20.0
2017-Nov-22 02:00S 29°12' E 099°14'0 0.0 1021.0 19.9
2017-Nov-22 01:00S 29°12' E 099°14'1 0.5 1020.9 19.9
2017-Nov-22 00:00S 29°12' E 099°13'1 0.8 1020.5 19.8
2017-Nov-21 23:00S 29°13' E 099°13'0 0.0 1020.1 19.8
2017-Nov-21 22:00S 29°13' E 099°13'4 4.2 1019.5 19.9
2017-Nov-21 21:00S 29°12' E 099°08'2 0.3 1019.4 19.9
2017-Nov-21 15:00S 29°12' E 099°06'1 0.6 1021.5 19.9
2017-Nov-21 14:00S 29°11' E 099°06'1 0.3 1021.5 19.9
2017-Nov-21 11:00S 29°11' E 099°05'0 0.0 1020.6 20.0
2017-Nov-21 10:00S 29°11' E 099°05'2 1.7 1020.2 20.1
2017-Nov-21 09:00S 29°11' E 099°03'5 2.4 1020.4 20.1
2017-Nov-21 07:00S 29°11' E 098°58'0 0.0 1020.7 20.0
2017-Nov-21 02:00S 29°11' E 098°58'1 1.0 1022.0 19.8
2017-Nov-21 01:00S 29°11' E 098°56'0 0.0 1022.1 19.8
2017-Nov-21 00:00S 29°11' E 098°56'2 1.6 1021.9 19.8
2017-Nov-20 23:00S 29°10' E 098°55'3 0.8 1021.4 19.8
2017-Nov-20 19:00S 29°08' E 098°52'4 1.1 1021.1 19.8
2017-Nov-20 15:00S 29°05' E 098°48'2 2.0 1021.4 19.9
2017-Nov-20 14:00S 29°04' E 098°46'0 0.0 1021.2 19.9
2017-Nov-20 13:00S 29°04' E 098°46'2 0.8 1020.8 19.9
2017-Nov-20 10:00S 29°02' E 098°44'4 1.5 1019.8 20.0
2017-Nov-20 07:00S 28°59' E 098°41'2 0.4 1020.2 20.0
2017-Nov-20 02:00S 28°58' E 098°39'1 1.3 1020.0 19.8
2017-Nov-20 01:00S 28°57' E 098°38'0 0.0 1019.7 19.8
2017-Nov-20 00:00S 28°57' E 098°38'2 2.0 1018.9 19.8
2017-Nov-19 23:00S 28°56' E 098°37'0 0.0 1018.1 19.8
2017-Nov-19 22:00S 28°56' E 098°37'8 0.9 1017.4 19.8
2017-Nov-19 13:00S 28°50' E 098°31'0 0.0 1016.2 19.9
2017-Nov-19 12:00S 28°50' E 098°31'0 0.0 1015.5 19.9
2017-Nov-19 11:00S 28°50' E 098°31'1 0.8 1014.9 20.0
2017-Nov-19 10:00S 28°49' E 098°30'1 1.2 1014.6 20.0
2017-Nov-19 09:00S 28°48' E 098°30'5 2.7 1014.6 20.0
2017-Nov-19 07:00S 28°43' E 098°29'0 0.0 1015.4 19.8
2017-Nov-19 03:00S 28°43' E 098°29'1 0.4 1016.6 19.8
2017-Nov-19 01:00S 28°42' E 098°29'1 0.8 1016.2 19.7
2017-Nov-19 00:00S 28°41' E 098°28'0 0.0 1015.9 19.8
2017-Nov-18 23:00S 28°41' E 098°28'2 2.0 1015.1 19.8
2017-Nov-18 22:00S 28°40' E 098°26'1 0.7 1014.6 19.8
2017-Nov-18 20:00S 28°39' E 098°26'6 1.1 1014.6 19.9
2017-Nov-18 15:00S 28°34' E 098°25'1 0.6 1016.9 20.1
2017-Nov-18 13:00S 28°32' E 098°25'2 1.6 1016.6 20.4
2017-Nov-18 12:00S 28°31' E 098°23'2 1.2 1016.5 20.3
2017-Nov-18 10:00S 28°29' E 098°23'0 0.0 1016.5 20.4
2017-Nov-18 09:00S 28°29' E 098°23'8 1.3 1016.8 20.5
2017-Nov-18 03:00S 28°22' E 098°26'2 0.5 1018.2 19.8
2017-Nov-18 00:00S 28°20' E 098°27'3 0.7 1016.8 19.7
2017-Nov-17 20:00S 28°18' E 098°29'5 1.0 1015.5 19.7
2017-Nov-17 15:00S 28°14' E 098°32'0 0.0 1016.4 19.7
2017-Nov-17 14:00S 28°14' E 098°32'2 2.5 1016.3 19.7
2017-Nov-17 13:00S 28°12' E 098°33'0 0.0 1016.1 19.7
2017-Nov-17 12:00S 28°12' E 098°33'1 1.3 1015.7 19.7
2017-Nov-17 11:00S 28°11' E 098°34'0 0.0 1015.0 19.7
2017-Nov-17 10:00S 28°11' E 098°34'10 1.4 1014.9 19.7
2017-Nov-17 03:00S 28°04' E 098°41'3 2.7 1015.0 19.6
2017-Nov-17 02:00S 28°04' E 098°44'0 0.0 1014.6 19.6
2017-Nov-17 01:00S 28°04' E 098°44'3 2.8 1014.2 19.6
2017-Nov-17 00:00S 28°02' E 098°47'0 0.0 1013.6 19.7
2017-Nov-16 23:00S 28°02' E 098°47'14 1.5 1013.0 19.6
2017-Nov-16 14:00S 27°58' E 099°02'0 0.0 1011.4 19.8
2017-Nov-16 13:00S 27°58' E 099°02'1 0.5 1010.6 19.9
2017-Nov-16 11:00S 27°58' E 099°03'2 2.4 1008.9 19.9
2017-Nov-16 10:00S 27°57' E 099°05'6 6.4 1008.3 19.9
2017-Nov-16 09:00S 27°53' E 099°11'0 0.0 1008.2 19.9
2017-Nov-16 08:00S 27°53' E 099°11'4 0.6 1008.7 19.9
2017-Nov-16 01:00S 27°50' E 099°15'0 0.0 1011.6 19.8
2017-Nov-16 00:00S 27°50' E 099°15'1 1.2 1011.6 19.8
2017-Nov-15 23:00S 27°50' E 099°16'9 9.0 1011.4 19.8
2017-Nov-15 22:00S 27°46' E 099°25'0 0.0 1011.6 19.8
2017-Nov-15 21:00S 27°46' E 099°25'0 0.0 1011.9 19.8
2017-Nov-15 20:00S 27°46' E 099°25'0 0.0 1012.9 19.8
2017-Nov-15 18:00S 27°46' E 099°25'0 0.0 1013.6 19.9
2017-Nov-15 16:00S 27°46' E 099°25'2 2.4 1014.9 19.9
2017-Nov-15 15:00S 27°44' E 099°28'1 0.5 1015.3 20.0
2017-Nov-15 14:00S 27°44' E 099°28'3 1.1 1015.5 20.0
2017-Nov-15 11:00S 27°43' E 099°31'2 1.6 1015.6 20.3
2017-Nov-15 10:00S 27°41' E 099°32'8 7.6 1015.7 20.4
2017-Nov-15 09:00S 27°37' E 099°40'0 0.0 1016.2 20.4
2017-Nov-15 08:00S 27°37' E 099°40'0 0.0 1016.7 20.2
2017-Nov-15 03:00S 27°37' E 099°40'   1019.3 19.7
Track history (hours):
 
Tides and Currents Weather Stations Pressure Air Temp Water Temp Dewpoint Dewpoint Depression Visibility Wind Speed Wind Dir Waves Ship Positions

Drifting buoy 16555

Last reported at 2017-Nov-25 03:00 UTC. Time now 2017-Nov-25 06:02 UTC.
Position S 28°37' E 099°26'.

Barometer 1021.9 mb
Water temperature 19.9 ° C

Date/timePositionNaut miles runAvg speedWind from/ knotsBaromVisibWave heightAir tempDewpointWater temp
2017-Nov-25 03:00S 28°37' E 099°26'3 3.0 1021.9 19.9
2017-Nov-25 02:00S 28°34' E 099°26'3 3.0 1021.9 19.9
2017-Nov-25 01:00S 28°37' E 099°26'0 0.0 1021.8 19.8
2017-Nov-25 00:00S 28°37' E 099°26'7 6.6 1021.2 19.8
2017-Nov-24 23:00S 28°43' E 099°27'0 0.0 1020.7 19.8
2017-Nov-24 22:00S 28°43' E 099°27'0 0.0 1020.4 19.8
2017-Nov-24 21:00S 28°43' E 099°27'0 0.0 1020.3 19.8
2017-Nov-24 16:00S 28°43' E 099°27'2 2.5 1020.7 19.9
2017-Nov-24 15:00S 28°46' E 099°28'2 0.9 1020.8 19.9
2017-Nov-24 13:00S 28°47' E 099°28'1 0.8 1020.0 19.9
2017-Nov-24 12:00S 28°48' E 099°27'1 0.6 1019.7 19.9
2017-Nov-24 11:00S 28°49' E 099°27'1 0.6 1019.4 19.9
2017-Nov-24 10:00S 28°49' E 099°27'1 1.3 1019.3 20.0
2017-Nov-24 09:00S 28°50' E 099°26'4 4.2 1019.5 19.9
2017-Nov-24 08:00S 28°55' E 099°26'0 0.0 1019.9 19.9
2017-Nov-24 04:00S 28°55' E 099°26'0 0.0 1021.0 19.8
2017-Nov-24 03:00S 28°55' E 099°26'3 0.9 1020.7 19.8
2017-Nov-24 00:00S 28°57' E 099°25'1 0.6 1019.9 19.8
2017-Nov-23 23:00S 28°58' E 099°25'1 0.8 1019.3 19.8
2017-Nov-23 22:00S 28°58' E 099°24'4 1.2 1019.1 19.9
2017-Nov-23 19:00S 29°02' E 099°24'0 0.0 1018.4 19.9
2017-Nov-23 15:00S 29°02' E 099°24'1 0.4 1019.8 19.9
2017-Nov-23 13:00S 29°02' E 099°23'0 0.0 1019.7 19.9
2017-Nov-23 12:00S 29°02' E 099°23'1 0.8 1019.3 20.0
2017-Nov-23 11:00S 29°03' E 099°24'2 1.6 1019.0 20.0
2017-Nov-23 10:00S 29°04' E 099°23'0 0.0 1018.6 20.0
2017-Nov-23 09:00S 29°04' E 099°23'4 0.4 1018.9 20.0
2017-Nov-23 01:00S 29°07' E 099°20'1 0.8 1020.9 19.8
2017-Nov-23 00:00S 29°07' E 099°20'1 0.5 1020.6 19.8
2017-Nov-22 23:00S 29°07' E 099°20'0 0.0 1020.2 19.8
2017-Nov-22 22:00S 29°07' E 099°20'1 0.4 1019.6 19.9
2017-Nov-22 19:00S 29°08' E 099°19'1 0.2 1019.5 19.9
2017-Nov-22 15:00S 29°08' E 099°19'1 0.3 1020.6 20.0
2017-Nov-22 13:00S 29°08' E 099°18'0 0.0 1020.4 20.1
2017-Nov-22 12:00S 29°08' E 099°18'2 0.7 1019.9 20.1
2017-Nov-22 09:00S 29°10' E 099°16'2 0.4 1019.7 20.2
2017-Nov-22 03:00S 29°11' E 099°14'1 0.8 1020.9 20.0
2017-Nov-22 02:00S 29°12' E 099°14'0 0.0 1021.0 19.9
2017-Nov-22 01:00S 29°12' E 099°14'1 0.5 1020.9 19.9
2017-Nov-22 00:00S 29°12' E 099°13'1 0.8 1020.5 19.8
2017-Nov-21 23:00S 29°13' E 099°13'0 0.0 1020.1 19.8
2017-Nov-21 22:00S 29°13' E 099°13'4 4.2 1019.5 19.9
2017-Nov-21 21:00S 29°12' E 099°08'2 0.3 1019.4 19.9
2017-Nov-21 15:00S 29°12' E 099°06'1 0.6 1021.5 19.9
2017-Nov-21 14:00S 29°11' E 099°06'1 0.3 1021.5 19.9
2017-Nov-21 11:00S 29°11' E 099°05'0 0.0 1020.6 20.0
2017-Nov-21 10:00S 29°11' E 099°05'2 1.7 1020.2 20.1
2017-Nov-21 09:00S 29°11' E 099°03'5 2.4 1020.4 20.1
2017-Nov-21 07:00S 29°11' E 098°58'0 0.0 1020.7 20.0
2017-Nov-21 02:00S 29°11' E 098°58'1 1.0 1022.0 19.8
2017-Nov-21 01:00S 29°11' E 098°56'0 0.0 1022.1 19.8
2017-Nov-21 00:00S 29°11' E 098°56'2 1.6 1021.9 19.8
2017-Nov-20 23:00S 29°10' E 098°55'3 0.8 1021.4 19.8
2017-Nov-20 19:00S 29°08' E 098°52'4 1.1 1021.1 19.8
2017-Nov-20 15:00S 29°05' E 098°48'2 2.0 1021.4 19.9
2017-Nov-20 14:00S 29°04' E 098°46'0 0.0 1021.2 19.9
2017-Nov-20 13:00S 29°04' E 098°46'2 0.8 1020.8 19.9
2017-Nov-20 10:00S 29°02' E 098°44'4 1.5 1019.8 20.0
2017-Nov-20 07:00S 28°59' E 098°41'2 0.4 1020.2 20.0
2017-Nov-20 02:00S 28°58' E 098°39'1 1.3 1020.0 19.8
2017-Nov-20 01:00S 28°57' E 098°38'0 0.0 1019.7 19.8
2017-Nov-20 00:00S 28°57' E 098°38'2 2.0 1018.9 19.8
2017-Nov-19 23:00S 28°56' E 098°37'0 0.0 1018.1 19.8
2017-Nov-19 22:00S 28°56' E 098°37'8 0.9 1017.4 19.8
2017-Nov-19 13:00S 28°50' E 098°31'0 0.0 1016.2 19.9
2017-Nov-19 12:00S 28°50' E 098°31'0 0.0 1015.5 19.9
2017-Nov-19 11:00S 28°50' E 098°31'1 0.8 1014.9 20.0
2017-Nov-19 10:00S 28°49' E 098°30'1 1.2 1014.6 20.0
2017-Nov-19 09:00S 28°48' E 098°30'5 2.7 1014.6 20.0
2017-Nov-19 07:00S 28°43' E 098°29'0 0.0 1015.4 19.8
2017-Nov-19 03:00S 28°43' E 098°29'1 0.4 1016.6 19.8
2017-Nov-19 01:00S 28°42' E 098°29'1 0.8 1016.2 19.7
2017-Nov-19 00:00S 28°41' E 098°28'0 0.0 1015.9 19.8
2017-Nov-18 23:00S 28°41' E 098°28'2 2.0 1015.1 19.8
2017-Nov-18 22:00S 28°40' E 098°26'1 0.7 1014.6 19.8
2017-Nov-18 20:00S 28°39' E 098°26'6 1.1 1014.6 19.9
2017-Nov-18 15:00S 28°34' E 098°25'1 0.6 1016.9 20.1
2017-Nov-18 13:00S 28°32' E 098°25'2 1.6 1016.6 20.4
2017-Nov-18 12:00S 28°31' E 098°23'2 1.2 1016.5 20.3
2017-Nov-18 10:00S 28°29' E 098°23'0 0.0 1016.5 20.4
2017-Nov-18 09:00S 28°29' E 098°23'8 1.3 1016.8 20.5
2017-Nov-18 03:00S 28°22' E 098°26'2 0.5 1018.2 19.8
2017-Nov-18 00:00S 28°20' E 098°27'3 0.7 1016.8 19.7
2017-Nov-17 20:00S 28°18' E 098°29'5 1.0 1015.5 19.7
2017-Nov-17 15:00S 28°14' E 098°32'0 0.0 1016.4 19.7
2017-Nov-17 14:00S 28°14' E 098°32'2 2.5 1016.3 19.7
2017-Nov-17 13:00S 28°12' E 098°33'0 0.0 1016.1 19.7
2017-Nov-17 12:00S 28°12' E 098°33'1 1.3 1015.7 19.7
2017-Nov-17 11:00S 28°11' E 098°34'0 0.0 1015.0 19.7
2017-Nov-17 10:00S 28°11' E 098°34'10 1.4 1014.9 19.7
2017-Nov-17 03:00S 28°04' E 098°41'3 2.7 1015.0 19.6
2017-Nov-17 02:00S 28°04' E 098°44'0 0.0 1014.6 19.6
2017-Nov-17 01:00S 28°04' E 098°44'3 2.8 1014.2 19.6
2017-Nov-17 00:00S 28°02' E 098°47'0 0.0 1013.6 19.7
2017-Nov-16 23:00S 28°02' E 098°47'14 1.5 1013.0 19.6
2017-Nov-16 14:00S 27°58' E 099°02'0 0.0 1011.4 19.8
2017-Nov-16 13:00S 27°58' E 099°02'1 0.5 1010.6 19.9
2017-Nov-16 11:00S 27°58' E 099°03'2 2.4 1008.9 19.9
2017-Nov-16 10:00S 27°57' E 099°05'6 6.4 1008.3 19.9
2017-Nov-16 09:00S 27°53' E 099°11'0 0.0 1008.2 19.9
2017-Nov-16 08:00S 27°53' E 099°11'4 0.6 1008.7 19.9
2017-Nov-16 01:00S 27°50' E 099°15'0 0.0 1011.6 19.8
2017-Nov-16 00:00S 27°50' E 099°15'1 1.2 1011.6 19.8
2017-Nov-15 23:00S 27°50' E 099°16'9 9.0 1011.4 19.8
2017-Nov-15 22:00S 27°46' E 099°25'0 0.0 1011.6 19.8
2017-Nov-15 21:00S 27°46' E 099°25'0 0.0 1011.9 19.8
2017-Nov-15 20:00S 27°46' E 099°25'0 0.0 1012.9 19.8
2017-Nov-15 18:00S 27°46' E 099°25'0 0.0 1013.6 19.9
2017-Nov-15 16:00S 27°46' E 099°25'2 2.4 1014.9 19.9
2017-Nov-15 15:00S 27°44' E 099°28'1 0.5 1015.3 20.0
2017-Nov-15 14:00S 27°44' E 099°28'3 1.1 1015.5 20.0
2017-Nov-15 11:00S 27°43' E 099°31'2 1.6 1015.6 20.3
2017-Nov-15 10:00S 27°41' E 099°32'8 7.6 1015.7 20.4
2017-Nov-15 09:00S 27°37' E 099°40'0 0.0 1016.2 20.4
2017-Nov-15 08:00S 27°37' E 099°40'0 0.0 1016.7 20.2
2017-Nov-15 03:00S 27°37' E 099°40'   1019.3 19.7

Dump ship's entire track history